sensor_id;sensor_type;location;lat;lon;timestamp;P1;durP1;ratioP1;P2;durP2;ratioP2
54517;SDS011;40423;53.176;6.002;2022-08-02T00:01:32;7.32;;;2.85;;
54517;SDS011;40423;53.176;6.002;2022-08-02T00:03:58;6.43;;;2.53;;
54517;SDS011;40423;53.176;6.002;2022-08-02T00:06:24;13.00;;;3.17;;
54517;SDS011;40423;53.176;6.002;2022-08-02T00:08:50;10.25;;;2.60;;
54517;SDS011;40423;53.176;6.002;2022-08-02T00:11:15;8.25;;;2.53;;
54517;SDS011;40423;53.176;6.002;2022-08-02T00:13:41;7.97;;;2.70;;
54517;SDS011;40423;53.176;6.002;2022-08-02T00:16:07;8.38;;;2.50;;
54517;SDS011;40423;53.176;6.002;2022-08-02T00:18:33;10.70;;;3.42;;
54517;SDS011;40423;53.176;6.002;2022-08-02T00:20:58;7.60;;;3.05;;
54517;SDS011;40423;53.176;6.002;2022-08-02T00:23:24;5.38;;;2.80;;
54517;SDS011;40423;53.176;6.002;2022-08-02T00:25:50;5.35;;;2.47;;
54517;SDS011;40423;53.176;6.002;2022-08-02T00:28:15;7.53;;;2.78;;
54517;SDS011;40423;53.176;6.002;2022-08-02T00:30:41;12.20;;;3.38;;
54517;SDS011;40423;53.176;6.002;2022-08-02T00:33:07;8.23;;;2.60;;
54517;SDS011;40423;53.176;6.002;2022-08-02T00:35:36;7.28;;;2.90;;
54517;SDS011;40423;53.176;6.002;2022-08-02T00:38:02;8.32;;;2.90;;
54517;SDS011;40423;53.176;6.002;2022-08-02T00:40:28;10.23;;;4.43;;
54517;SDS011;40423;53.176;6.002;2022-08-02T00:43:28;7.70;;;3.50;;
54517;SDS011;40423;53.176;6.002;2022-08-02T00:45:46;8.10;;;2.97;;
54517;SDS011;40423;53.176;6.002;2022-08-02T00:48:12;14.05;;;3.35;;
54517;SDS011;40423;53.176;6.002;2022-08-02T00:50:39;7.50;;;3.85;;
54517;SDS011;40423;53.176;6.002;2022-08-02T00:53:05;6.05;;;2.50;;
54517;SDS011;40423;53.176;6.002;2022-08-02T00:55:33;9.00;;;2.95;;
54517;SDS011;40423;53.176;6.002;2022-08-02T00:58:00;7.22;;;2.67;;
54517;SDS011;40423;53.176;6.002;2022-08-02T01:00:26;7.32;;;2.60;;
54517;SDS011;40423;53.176;6.002;2022-08-02T01:02:52;11.15;;;3.35;;
54517;SDS011;40423;53.176;6.002;2022-08-02T01:05:17;9.55;;;3.40;;
54517;SDS011;40423;53.176;6.002;2022-08-02T01:07:43;7.72;;;3.22;;
54517;SDS011;40423;53.176;6.002;2022-08-02T01:10:09;12.85;;;3.53;;
54517;SDS011;40423;53.176;6.002;2022-08-02T01:12:35;9.52;;;3.10;;
54517;SDS011;40423;53.176;6.002;2022-08-02T01:15:03;9.07;;;2.85;;
54517;SDS011;40423;53.176;6.002;2022-08-02T01:23:00;11.05;;;3.50;;
54517;SDS011;40423;53.176;6.002;2022-08-02T01:28:25;6.03;;;2.70;;
54517;SDS011;40423;53.176;6.002;2022-08-02T01:31:20;12.32;;;3.50;;
54517;SDS011;40423;53.176;6.002;2022-08-02T01:34:02;9.77;;;3.58;;
54517;SDS011;40423;53.176;6.002;2022-08-02T01:36:36;9.65;;;3.15;;
54517;SDS011;40423;53.176;6.002;2022-08-02T01:39:06;8.98;;;3.45;;
54517;SDS011;40423;53.176;6.002;2022-08-02T01:41:35;9.20;;;3.58;;
54517;SDS011;40423;53.176;6.002;2022-08-02T01:44:02;10.13;;;3.10;;
54517;SDS011;40423;53.176;6.002;2022-08-02T01:46:29;6.03;;;2.90;;
54517;SDS011;40423;53.176;6.002;2022-08-02T01:48:57;8.57;;;3.35;;
54517;SDS011;40423;53.176;6.002;2022-08-02T01:51:27;8.05;;;3.65;;
54517;SDS011;40423;53.176;6.002;2022-08-02T01:54:13;6.22;;;2.53;;
54517;SDS011;40423;53.176;6.002;2022-08-02T01:56:41;10.23;;;3.70;;
54517;SDS011;40423;53.176;6.002;2022-08-02T01:59:09;9.48;;;3.55;;
54517;SDS011;40423;53.176;6.002;2022-08-02T02:01:38;9.75;;;3.15;;
54517;SDS011;40423;53.176;6.002;2022-08-02T02:04:05;9.00;;;2.92;;
54517;SDS011;40423;53.176;6.002;2022-08-02T02:06:32;6.97;;;3.13;;
54517;SDS011;40423;53.176;6.002;2022-08-02T02:09:00;8.88;;;3.10;;
54517;SDS011;40423;53.176;6.002;2022-08-02T02:11:29;9.00;;;2.85;;
54517;SDS011;40423;53.176;6.002;2022-08-02T02:13:57;9.20;;;3.40;;
54517;SDS011;40423;53.176;6.002;2022-08-02T02:16:24;7.63;;;3.05;;
54517;SDS011;40423;53.176;6.002;2022-08-02T02:18:51;8.82;;;3.42;;
54517;SDS011;40423;53.176;6.002;2022-08-02T02:21:18;7.03;;;3.10;;
54517;SDS011;40423;53.176;6.002;2022-08-02T02:23:44;6.22;;;3.08;;
54517;SDS011;40423;53.176;6.002;2022-08-02T02:26:10;7.22;;;2.60;;
54517;SDS011;40423;53.176;6.002;2022-08-02T02:28:39;7.65;;;3.00;;
54517;SDS011;40423;53.176;6.002;2022-08-02T02:31:08;9.18;;;3.33;;
54517;SDS011;40423;53.176;6.002;2022-08-02T02:33:37;8.20;;;2.72;;
54517;SDS011;40423;53.176;6.002;2022-08-02T02:36:08;10.70;;;2.97;;
54517;SDS011;40423;53.176;6.002;2022-08-02T02:38:36;11.00;;;3.50;;
54517;SDS011;40423;53.176;6.002;2022-08-02T02:41:04;8.90;;;3.72;;
54517;SDS011;40423;53.176;6.002;2022-08-02T02:43:31;8.00;;;3.22;;
54517;SDS011;40423;53.176;6.002;2022-08-02T02:45:58;9.65;;;2.97;;
54517;SDS011;40423;53.176;6.002;2022-08-02T02:48:27;6.97;;;3.13;;
54517;SDS011;40423;53.176;6.002;2022-08-02T02:50:53;6.15;;;3.35;;
54517;SDS011;40423;53.176;6.002;2022-08-02T02:53:20;7.38;;;3.17;;
54517;SDS011;40423;53.176;6.002;2022-08-02T02:55:47;11.13;;;3.30;;
54517;SDS011;40423;53.176;6.002;2022-08-02T02:58:13;8.90;;;3.17;;
54517;SDS011;40423;53.176;6.002;2022-08-02T03:00:40;8.73;;;3.38;;
54517;SDS011;40423;53.176;6.002;2022-08-02T03:03:25;9.32;;;3.40;;
54517;SDS011;40423;53.176;6.002;2022-08-02T03:05:51;5.75;;;3.17;;
54517;SDS011;40423;53.176;6.002;2022-08-02T03:08:17;8.32;;;3.28;;
54517;SDS011;40423;53.176;6.002;2022-08-02T03:10:42;6.45;;;2.83;;
54517;SDS011;40423;53.176;6.002;2022-08-02T03:13:09;8.35;;;3.10;;
54517;SDS011;40423;53.176;6.002;2022-08-02T03:15:35;12.57;;;3.17;;
54517;SDS011;40423;53.176;6.002;2022-08-02T03:18:02;9.35;;;3.03;;
54517;SDS011;40423;53.176;6.002;2022-08-02T03:20:28;5.28;;;2.63;;
54517;SDS011;40423;53.176;6.002;2022-08-02T03:22:54;8.13;;;3.17;;
54517;SDS011;40423;53.176;6.002;2022-08-02T03:25:19;9.68;;;3.55;;
54517;SDS011;40423;53.176;6.002;2022-08-02T03:27:45;6.47;;;3.10;;
54517;SDS011;40423;53.176;6.002;2022-08-02T03:30:11;12.43;;;3.90;;
54517;SDS011;40423;53.176;6.002;2022-08-02T03:32:39;9.40;;;3.15;;
54517;SDS011;40423;53.176;6.002;2022-08-02T03:35:08;6.75;;;2.80;;
54517;SDS011;40423;53.176;6.002;2022-08-02T03:37:35;11.40;;;3.22;;
54517;SDS011;40423;53.176;6.002;2022-08-02T03:40:02;12.35;;;3.53;;
54517;SDS011;40423;53.176;6.002;2022-08-02T03:42:31;10.48;;;3.33;;
54517;SDS011;40423;53.176;6.002;2022-08-02T03:44:57;10.77;;;3.53;;
54517;SDS011;40423;53.176;6.002;2022-08-02T03:47:24;12.23;;;3.53;;
54517;SDS011;40423;53.176;6.002;2022-08-02T03:49:52;7.07;;;2.85;;
54517;SDS011;40423;53.176;6.002;2022-08-02T03:52:19;8.90;;;2.60;;
54517;SDS011;40423;53.176;6.002;2022-08-02T03:54:45;12.88;;;3.22;;
54517;SDS011;40423;53.176;6.002;2022-08-02T03:57:10;5.68;;;3.10;;
54517;SDS011;40423;53.176;6.002;2022-08-02T03:59:40;7.80;;;3.58;;
54517;SDS011;40423;53.176;6.002;2022-08-02T04:02:08;7.93;;;3.45;;
54517;SDS011;40423;53.176;6.002;2022-08-02T04:04:34;9.85;;;3.47;;
54517;SDS011;40423;53.176;6.002;2022-08-02T04:07:01;8.23;;;3.90;;
54517;SDS011;40423;53.176;6.002;2022-08-02T04:09:27;12.35;;;3.97;;
54517;SDS011;40423;53.176;6.002;2022-08-02T04:11:52;10.23;;;3.55;;
54517;SDS011;40423;53.176;6.002;2022-08-02T04:14:18;11.00;;;3.55;;
54517;SDS011;40423;53.176;6.002;2022-08-02T04:16:45;6.57;;;3.72;;
54517;SDS011;40423;53.176;6.002;2022-08-02T04:19:18;12.55;;;4.55;;
54517;SDS011;40423;53.176;6.002;2022-08-02T04:21:59;9.05;;;3.42;;
54517;SDS011;40423;53.176;6.002;2022-08-02T04:24:29;12.48;;;3.47;;
54517;SDS011;40423;53.176;6.002;2022-08-02T04:27:00;11.80;;;4.53;;
54517;SDS011;40423;53.176;6.002;2022-08-02T04:29:27;11.25;;;4.10;;
54517;SDS011;40423;53.176;6.002;2022-08-02T04:31:55;8.40;;;3.92;;
54517;SDS011;40423;53.176;6.002;2022-08-02T04:34:22;11.93;;;4.07;;
54517;SDS011;40423;53.176;6.002;2022-08-02T04:36:48;11.20;;;4.65;;
54517;SDS011;40423;53.176;6.002;2022-08-02T04:39:14;8.35;;;4.03;;
54517;SDS011;40423;53.176;6.002;2022-08-02T04:41:41;9.55;;;3.85;;
54517;SDS011;40423;53.176;6.002;2022-08-02T04:44:08;9.75;;;3.90;;
54517;SDS011;40423;53.176;6.002;2022-08-02T04:46:37;8.55;;;4.07;;
54517;SDS011;40423;53.176;6.002;2022-08-02T04:49:04;9.60;;;3.78;;
54517;SDS011;40423;53.176;6.002;2022-08-02T04:51:33;7.97;;;3.67;;
54517;SDS011;40423;53.176;6.002;2022-08-02T04:54:06;6.45;;;4.07;;
54517;SDS011;40423;53.176;6.002;2022-08-02T04:56:33;9.82;;;3.85;;
54517;SDS011;40423;53.176;6.002;2022-08-02T04:58:58;8.15;;;3.60;;
54517;SDS011;40423;53.176;6.002;2022-08-02T05:01:24;11.88;;;4.88;;
54517;SDS011;40423;53.176;6.002;2022-08-02T05:03:50;8.63;;;3.35;;
54517;SDS011;40423;53.176;6.002;2022-08-02T05:06:16;8.68;;;3.92;;
54517;SDS011;40423;53.176;6.002;2022-08-02T05:08:43;8.05;;;3.90;;
54517;SDS011;40423;53.176;6.002;2022-08-02T05:11:12;12.23;;;3.97;;
54517;SDS011;40423;53.176;6.002;2022-08-02T05:13:39;8.70;;;3.40;;
54517;SDS011;40423;53.176;6.002;2022-08-02T05:16:05;8.10;;;3.85;;
54517;SDS011;40423;53.176;6.002;2022-08-02T05:18:31;8.73;;;3.72;;
54517;SDS011;40423;53.176;6.002;2022-08-02T05:20:57;12.80;;;3.92;;
54517;SDS011;40423;53.176;6.002;2022-08-02T05:23:23;8.32;;;3.97;;
54517;SDS011;40423;53.176;6.002;2022-08-02T05:25:48;10.70;;;3.92;;
54517;SDS011;40423;53.176;6.002;2022-08-02T05:28:17;7.50;;;3.50;;
54517;SDS011;40423;53.176;6.002;2022-08-02T05:30:43;9.80;;;4.30;;
54517;SDS011;40423;53.176;6.002;2022-08-02T05:33:09;8.15;;;4.50;;
54517;SDS011;40423;53.176;6.002;2022-08-02T05:35:35;13.93;;;4.30;;
54517;SDS011;40423;53.176;6.002;2022-08-02T05:38:00;11.15;;;4.22;;
54517;SDS011;40423;53.176;6.002;2022-08-02T05:40:26;7.82;;;3.75;;
54517;SDS011;40423;53.176;6.002;2022-08-02T05:42:52;8.80;;;4.10;;
54517;SDS011;40423;53.176;6.002;2022-08-02T05:45:18;7.47;;;4.30;;
54517;SDS011;40423;53.176;6.002;2022-08-02T05:47:44;7.07;;;3.72;;
54517;SDS011;40423;53.176;6.002;2022-08-02T05:50:10;8.45;;;3.90;;
54517;SDS011;40423;53.176;6.002;2022-08-02T05:52:48;12.73;;;4.65;;
54517;SDS011;40423;53.176;6.002;2022-08-02T06:00:27;12.80;;;4.07;;
54517;SDS011;40423;53.176;6.002;2022-08-02T06:03:02;11.10;;;3.88;;
54517;SDS011;40423;53.176;6.002;2022-08-02T06:05:40;11.68;;;4.32;;
54517;SDS011;40423;53.176;6.002;2022-08-02T06:08:30;5.97;;;3.95;;
54517;SDS011;40423;53.176;6.002;2022-08-02T06:10:59;8.50;;;3.70;;
54517;SDS011;40423;53.176;6.002;2022-08-02T06:13:26;9.45;;;3.58;;
54517;SDS011;40423;53.176;6.002;2022-08-02T06:15:52;7.47;;;3.40;;
54517;SDS011;40423;53.176;6.002;2022-08-02T06:18:24;8.43;;;3.50;;
54517;SDS011;40423;53.176;6.002;2022-08-02T06:20:51;8.52;;;3.72;;
54517;SDS011;40423;53.176;6.002;2022-08-02T06:23:19;6.97;;;3.40;;
54517;SDS011;40423;53.176;6.002;2022-08-02T06:25:46;7.40;;;3.67;;
54517;SDS011;40423;53.176;6.002;2022-08-02T06:28:14;8.30;;;3.33;;
54517;SDS011;40423;53.176;6.002;2022-08-02T06:30:40;8.55;;;3.38;;
54517;SDS011;40423;53.176;6.002;2022-08-02T06:33:08;5.15;;;3.22;;
54517;SDS011;40423;53.176;6.002;2022-08-02T06:36:18;10.93;;;3.63;;
54517;SDS011;40423;53.176;6.002;2022-08-02T06:38:42;7.18;;;3.08;;
54517;SDS011;40423;53.176;6.002;2022-08-02T06:41:15;7.47;;;3.42;;
54517;SDS011;40423;53.176;6.002;2022-08-02T06:44:01;5.35;;;3.05;;
54517;SDS011;40423;53.176;6.002;2022-08-02T06:46:28;6.88;;;3.05;;
54517;SDS011;40423;53.176;6.002;2022-08-02T06:48:54;7.82;;;3.20;;
54517;SDS011;40423;53.176;6.002;2022-08-02T06:51:20;7.80;;;3.00;;
54517;SDS011;40423;53.176;6.002;2022-08-02T06:53:46;10.98;;;3.03;;
54517;SDS011;40423;53.176;6.002;2022-08-02T06:56:13;9.05;;;2.80;;
54517;SDS011;40423;53.176;6.002;2022-08-02T06:58:38;9.65;;;3.08;;
54517;SDS011;40423;53.176;6.002;2022-08-02T07:01:04;8.85;;;3.10;;
54517;SDS011;40423;53.176;6.002;2022-08-02T07:03:37;7.80;;;2.90;;
54517;SDS011;40423;53.176;6.002;2022-08-02T07:06:05;5.60;;;2.73;;
54517;SDS011;40423;53.176;6.002;2022-08-02T07:08:33;9.90;;;2.97;;
54517;SDS011;40423;53.176;6.002;2022-08-02T07:11:02;8.07;;;2.30;;
54517;SDS011;40423;53.176;6.002;2022-08-02T07:13:28;7.72;;;2.60;;
54517;SDS011;40423;53.176;6.002;2022-08-02T07:15:54;9.00;;;2.97;;
54517;SDS011;40423;53.176;6.002;2022-08-02T07:18:20;7.53;;;2.67;;
54517;SDS011;40423;53.176;6.002;2022-08-02T07:20:47;8.93;;;2.38;;
54517;SDS011;40423;53.176;6.002;2022-08-02T07:23:13;5.20;;;2.38;;
54517;SDS011;40423;53.176;6.002;2022-08-02T07:25:39;7.43;;;2.40;;
54517;SDS011;40423;53.176;6.002;2022-08-02T07:28:05;8.45;;;2.63;;
54517;SDS011;40423;53.176;6.002;2022-08-02T07:30:33;6.47;;;2.45;;
54517;SDS011;40423;53.176;6.002;2022-08-02T07:32:58;7.45;;;2.30;;
54517;SDS011;40423;53.176;6.002;2022-08-02T07:35:24;5.28;;;2.00;;
54517;SDS011;40423;53.176;6.002;2022-08-02T07:37:50;5.75;;;2.55;;
54517;SDS011;40423;53.176;6.002;2022-08-02T07:40:18;5.05;;;2.13;;
54517;SDS011;40423;53.176;6.002;2022-08-02T07:42:44;5.28;;;2.10;;
54517;SDS011;40423;53.176;6.002;2022-08-02T07:45:12;8.50;;;2.35;;
54517;SDS011;40423;53.176;6.002;2022-08-02T07:47:39;6.03;;;1.83;;
54517;SDS011;40423;53.176;6.002;2022-08-02T07:50:06;4.30;;;1.95;;
54517;SDS011;40423;53.176;6.002;2022-08-02T07:52:33;6.22;;;2.00;;
54517;SDS011;40423;53.176;6.002;2022-08-02T07:54:59;6.50;;;2.17;;
54517;SDS011;40423;53.176;6.002;2022-08-02T07:57:25;4.40;;;1.80;;
54517;SDS011;40423;53.176;6.002;2022-08-02T07:59:51;4.20;;;2.30;;
54517;SDS011;40423;53.176;6.002;2022-08-02T08:02:16;3.83;;;1.80;;
54517;SDS011;40423;53.176;6.002;2022-08-02T08:04:42;4.40;;;1.65;;
54517;SDS011;40423;53.176;6.002;2022-08-02T08:07:08;5.35;;;1.60;;
54517;SDS011;40423;53.176;6.002;2022-08-02T08:09:36;5.20;;;1.60;;
54517;SDS011;40423;53.176;6.002;2022-08-02T08:12:09;3.13;;;1.25;;
54517;SDS011;40423;53.176;6.002;2022-08-02T08:14:36;4.05;;;1.70;;
54517;SDS011;40423;53.176;6.002;2022-08-02T08:17:03;5.30;;;1.90;;
54517;SDS011;40423;53.176;6.002;2022-08-02T08:19:29;3.40;;;1.60;;
54517;SDS011;40423;53.176;6.002;2022-08-02T08:21:55;3.65;;;1.70;;
54517;SDS011;40423;53.176;6.002;2022-08-02T08:24:20;4.68;;;1.80;;
54517;SDS011;40423;53.176;6.002;2022-08-02T08:26:46;5.53;;;2.17;;
54517;SDS011;40423;53.176;6.002;2022-08-02T08:29:12;4.60;;;1.75;;
54517;SDS011;40423;53.176;6.002;2022-08-02T08:31:37;5.03;;;2.00;;
54517;SDS011;40423;53.176;6.002;2022-08-02T08:34:03;5.53;;;1.52;;
54517;SDS011;40423;53.176;6.002;2022-08-02T08:36:29;4.40;;;2.13;;
54517;SDS011;40423;53.176;6.002;2022-08-02T08:38:55;9.00;;;2.08;;
54517;SDS011;40423;53.176;6.002;2022-08-02T08:41:21;5.88;;;1.80;;
54517;SDS011;40423;53.176;6.002;2022-08-02T08:43:46;3.55;;;1.58;;
54517;SDS011;40423;53.176;6.002;2022-08-02T08:46:26;6.13;;;1.88;;
54517;SDS011;40423;53.176;6.002;2022-08-02T08:48:57;6.03;;;1.95;;
54517;SDS011;40423;53.176;6.002;2022-08-02T08:51:44;3.55;;;1.92;;
54517;SDS011;40423;53.176;6.002;2022-08-02T08:54:12;5.28;;;2.47;;
54517;SDS011;40423;53.176;6.002;2022-08-02T08:56:41;5.70;;;2.00;;
54517;SDS011;40423;53.176;6.002;2022-08-02T08:59:08;4.10;;;2.28;;
54517;SDS011;40423;53.176;6.002;2022-08-02T09:01:34;6.13;;;2.45;;
54517;SDS011;40423;53.176;6.002;2022-08-02T09:04:00;3.90;;;2.20;;
54517;SDS011;40423;53.176;6.002;2022-08-02T09:06:26;6.43;;;2.53;;
54517;SDS011;40423;53.176;6.002;2022-08-02T09:08:52;4.63;;;2.20;;
54517;SDS011;40423;53.176;6.002;2022-08-02T09:11:21;8.02;;;2.50;;
54517;SDS011;40423;53.176;6.002;2022-08-02T09:13:49;6.50;;;2.13;;
54517;SDS011;40423;53.176;6.002;2022-08-02T09:16:26;5.82;;;2.40;;
54517;SDS011;40423;53.176;6.002;2022-08-02T09:18:53;4.50;;;2.40;;
54517;SDS011;40423;53.176;6.002;2022-08-02T09:21:19;3.25;;;2.00;;
54517;SDS011;40423;53.176;6.002;2022-08-02T09:23:46;5.85;;;2.83;;
54517;SDS011;40423;53.176;6.002;2022-08-02T09:26:17;10.65;;;3.03;;
54517;SDS011;40423;53.176;6.002;2022-08-02T09:28:45;4.68;;;2.60;;
54517;SDS011;40423;53.176;6.002;2022-08-02T09:31:15;5.15;;;2.80;;
54517;SDS011;40423;53.176;6.002;2022-08-02T09:33:49;4.43;;;2.50;;
54517;SDS011;40423;53.176;6.002;2022-08-02T09:36:19;4.40;;;2.40;;
54517;SDS011;40423;53.176;6.002;2022-08-02T09:38:52;6.10;;;2.97;;
54517;SDS011;40423;53.176;6.002;2022-08-02T09:41:24;9.40;;;3.00;;
54517;SDS011;40423;53.176;6.002;2022-08-02T09:43:51;7.82;;;3.13;;
54517;SDS011;40423;53.176;6.002;2022-08-02T09:46:19;7.22;;;3.85;;
54517;SDS011;40423;53.176;6.002;2022-08-02T09:48:50;6.63;;;3.47;;
54517;SDS011;40423;53.176;6.002;2022-08-02T09:51:25;8.15;;;4.00;;
54517;SDS011;40423;53.176;6.002;2022-08-02T09:53:57;8.00;;;4.13;;
54517;SDS011;40423;53.176;6.002;2022-08-02T09:56:25;7.78;;;3.65;;
54517;SDS011;40423;53.176;6.002;2022-08-02T09:58:53;8.30;;;4.03;;
54517;SDS011;40423;53.176;6.002;2022-08-02T10:01:21;6.28;;;3.90;;
54517;SDS011;40423;53.176;6.002;2022-08-02T10:03:57;5.53;;;4.25;;
54517;SDS011;40423;53.176;6.002;2022-08-02T10:06:24;14.10;;;6.35;;
54517;SDS011;40423;53.176;6.002;2022-08-02T10:08:50;9.68;;;4.78;;
54517;SDS011;40423;53.176;6.002;2022-08-02T10:11:18;5.90;;;4.30;;
54517;SDS011;40423;53.176;6.002;2022-08-02T10:13:45;7.10;;;4.57;;
54517;SDS011;40423;53.176;6.002;2022-08-02T10:16:11;12.95;;;5.72;;
54517;SDS011;40423;53.176;6.002;2022-08-02T10:18:36;6.78;;;4.20;;
54517;SDS011;40423;53.176;6.002;2022-08-02T10:21:02;6.75;;;4.05;;
54517;SDS011;40423;53.176;6.002;2022-08-02T10:23:34;6.57;;;4.60;;
54517;SDS011;40423;53.176;6.002;2022-08-02T10:26:04;6.80;;;3.70;;
54517;SDS011;40423;53.176;6.002;2022-08-02T10:28:31;7.22;;;3.75;;
54517;SDS011;40423;53.176;6.002;2022-08-02T10:30:58;5.78;;;3.80;;
54517;SDS011;40423;53.176;6.002;2022-08-02T10:33:27;7.78;;;5.30;;
54517;SDS011;40423;53.176;6.002;2022-08-02T10:35:55;7.18;;;4.70;;
54517;SDS011;40423;53.176;6.002;2022-08-02T10:38:23;8.00;;;4.88;;
54517;SDS011;40423;53.176;6.002;2022-08-02T10:40:53;6.25;;;4.07;;
54517;SDS011;40423;53.176;6.002;2022-08-02T10:54:23;9.30;;;7.35;;
54517;SDS011;40423;53.176;6.002;2022-08-02T10:56:56;8.70;;;6.60;;
54517;SDS011;40423;53.176;6.002;2022-08-02T10:59:33;10.40;;;7.80;;
54517;SDS011;40423;53.176;6.002;2022-08-02T11:02:01;11.15;;;7.25;;
54517;SDS011;40423;53.176;6.002;2022-08-02T11:07:21;10.57;;;9.00;;
54517;SDS011;40423;53.176;6.002;2022-08-02T11:09:57;13.52;;;9.45;;
54517;SDS011;40423;53.176;6.002;2022-08-02T11:12:24;10.88;;;8.68;;
54517;SDS011;40423;53.176;6.002;2022-08-02T11:14:58;13.65;;;10.32;;
54517;SDS011;40423;53.176;6.002;2022-08-02T11:17:28;14.45;;;9.93;;
54517;SDS011;40423;53.176;6.002;2022-08-02T11:20:17;13.48;;;10.45;;
54517;SDS011;40423;53.176;6.002;2022-08-02T11:22:45;13.15;;;10.27;;
54517;SDS011;40423;53.176;6.002;2022-08-02T11:27:53;13.20;;;10.52;;
54517;SDS011;40423;53.176;6.002;2022-08-02T11:30:24;11.20;;;9.63;;
54517;SDS011;40423;53.176;6.002;2022-08-02T11:32:58;14.75;;;10.70;;
54517;SDS011;40423;53.176;6.002;2022-08-02T11:35:33;15.93;;;11.35;;
54517;SDS011;40423;53.176;6.002;2022-08-02T11:38:19;14.00;;;9.75;;
54517;SDS011;40423;53.176;6.002;2022-08-02T11:40:47;11.23;;;8.73;;
54517;SDS011;40423;53.176;6.002;2022-08-02T11:43:20;13.27;;;9.90;;
54517;SDS011;40423;53.176;6.002;2022-08-02T11:45:51;14.20;;;10.75;;
54517;SDS011;40423;53.176;6.002;2022-08-02T11:48:34;16.42;;;10.35;;
54517;SDS011;40423;53.176;6.002;2022-08-02T11:51:05;13.27;;;10.27;;
54517;SDS011;40423;53.176;6.002;2022-08-02T11:56:07;13.70;;;10.23;;
54517;SDS011;40423;53.176;6.002;2022-08-02T11:58:34;14.80;;;11.10;;
54517;SDS011;40423;53.176;6.002;2022-08-02T12:01:00;14.77;;;10.95;;
54517;SDS011;40423;53.176;6.002;2022-08-02T12:03:26;16.50;;;11.27;;
54517;SDS011;40423;53.176;6.002;2022-08-02T12:05:52;15.38;;;11.27;;
54517;SDS011;40423;53.176;6.002;2022-08-02T12:08:18;13.68;;;12.27;;
54517;SDS011;40423;53.176;6.002;2022-08-02T12:10:47;14.57;;;11.65;;
54517;SDS011;40423;53.176;6.002;2022-08-02T12:13:13;17.92;;;12.68;;
54517;SDS011;40423;53.176;6.002;2022-08-02T12:15:40;14.35;;;11.27;;
54517;SDS011;40423;53.176;6.002;2022-08-02T12:18:14;15.30;;;12.85;;
54517;SDS011;40423;53.176;6.002;2022-08-02T12:21:01;14.75;;;11.00;;
54517;SDS011;40423;53.176;6.002;2022-08-02T12:23:27;14.05;;;10.82;;
54517;SDS011;40423;53.176;6.002;2022-08-02T12:26:01;13.88;;;11.52;;
54517;SDS011;40423;53.176;6.002;2022-08-02T12:28:31;14.48;;;11.20;;
54517;SDS011;40423;53.176;6.002;2022-08-02T12:30:58;14.43;;;11.95;;
54517;SDS011;40423;53.176;6.002;2022-08-02T12:33:32;16.25;;;12.27;;
54517;SDS011;40423;53.176;6.002;2022-08-02T12:36:13;13.98;;;12.20;;
54517;SDS011;40423;53.176;6.002;2022-08-02T12:38:49;17.03;;;13.03;;
54517;SDS011;40423;53.176;6.002;2022-08-02T12:41:16;17.33;;;12.95;;
54517;SDS011;40423;53.176;6.002;2022-08-02T12:43:42;17.48;;;13.73;;
54517;SDS011;40423;53.176;6.002;2022-08-02T12:46:14;16.67;;;13.32;;
54517;SDS011;40423;53.176;6.002;2022-08-02T12:48:41;17.42;;;13.80;;
54517;SDS011;40423;53.176;6.002;2022-08-02T12:53:54;16.13;;;13.80;;
54517;SDS011;40423;53.176;6.002;2022-08-02T12:56:38;18.63;;;13.52;;
54517;SDS011;40423;53.176;6.002;2022-08-02T12:59:04;16.73;;;14.20;;
54517;SDS011;40423;53.176;6.002;2022-08-02T13:01:34;18.70;;;13.55;;
54517;SDS011;40423;53.176;6.002;2022-08-02T13:04:00;18.65;;;13.70;;
54517;SDS011;40423;53.176;6.002;2022-08-02T13:06:27;19.95;;;13.35;;
54517;SDS011;40423;53.176;6.002;2022-08-02T13:08:53;17.55;;;13.32;;
54517;SDS011;40423;53.176;6.002;2022-08-02T13:11:20;16.15;;;13.13;;
54517;SDS011;40423;53.176;6.002;2022-08-02T13:13:46;19.20;;;13.73;;
54517;SDS011;40423;53.176;6.002;2022-08-02T13:16:12;17.77;;;13.65;;
54517;SDS011;40423;53.176;6.002;2022-08-02T13:18:38;16.95;;;13.52;;
54517;SDS011;40423;53.176;6.002;2022-08-02T13:21:05;16.65;;;13.98;;
54517;SDS011;40423;53.176;6.002;2022-08-02T13:23:33;16.88;;;13.82;;
54517;SDS011;40423;53.176;6.002;2022-08-02T13:25:59;16.73;;;14.57;;
54517;SDS011;40423;53.176;6.002;2022-08-02T13:28:25;17.42;;;15.23;;
54517;SDS011;40423;53.176;6.002;2022-08-02T13:30:51;17.77;;;14.45;;
54517;SDS011;40423;53.176;6.002;2022-08-02T13:33:17;20.23;;;15.50;;
54517;SDS011;40423;53.176;6.002;2022-08-02T13:35:43;18.23;;;13.95;;
54517;SDS011;40423;53.176;6.002;2022-08-02T13:38:10;17.52;;;13.73;;
54517;SDS011;40423;53.176;6.002;2022-08-02T13:40:35;16.25;;;13.52;;
54517;SDS011;40423;53.176;6.002;2022-08-02T13:43:24;20.63;;;13.70;;
54517;SDS011;40423;53.176;6.002;2022-08-02T13:45:51;15.25;;;12.88;;
54517;SDS011;40423;53.176;6.002;2022-08-02T13:48:17;15.15;;;12.48;;
54517;SDS011;40423;53.176;6.002;2022-08-02T13:50:43;14.10;;;12.02;;
54517;SDS011;40423;53.176;6.002;2022-08-02T13:53:08;14.75;;;12.10;;
54517;SDS011;40423;53.176;6.002;2022-08-02T13:55:34;13.25;;;11.95;;
54517;SDS011;40423;53.176;6.002;2022-08-02T13:58:00;16.20;;;12.35;;
54517;SDS011;40423;53.176;6.002;2022-08-02T14:00:26;13.65;;;11.82;;
54517;SDS011;40423;53.176;6.002;2022-08-02T14:02:52;14.60;;;12.15;;
54517;SDS011;40423;53.176;6.002;2022-08-02T14:05:18;12.00;;;10.15;;
54517;SDS011;40423;53.176;6.002;2022-08-02T14:07:44;14.25;;;12.75;;
54517;SDS011;40423;53.176;6.002;2022-08-02T14:10:10;14.88;;;11.85;;
54517;SDS011;40423;53.176;6.002;2022-08-02T14:12:36;11.93;;;10.57;;
54517;SDS011;40423;53.176;6.002;2022-08-02T14:15:02;14.63;;;11.63;;
54517;SDS011;40423;53.176;6.002;2022-08-02T14:17:28;17.83;;;12.35;;
54517;SDS011;40423;53.176;6.002;2022-08-02T14:19:53;14.20;;;11.10;;
54517;SDS011;40423;53.176;6.002;2022-08-02T14:22:19;14.13;;;11.90;;
54517;SDS011;40423;53.176;6.002;2022-08-02T14:24:45;14.18;;;10.88;;
54517;SDS011;40423;53.176;6.002;2022-08-02T14:27:10;14.38;;;10.30;;
54517;SDS011;40423;53.176;6.002;2022-08-02T14:29:36;11.63;;;8.77;;
54517;SDS011;40423;53.176;6.002;2022-08-02T14:32:02;9.98;;;8.27;;
54517;SDS011;40423;53.176;6.002;2022-08-02T14:34:28;9.30;;;6.75;;
54517;SDS011;40423;53.176;6.002;2022-08-02T14:36:54;11.68;;;8.45;;
54517;SDS011;40423;53.176;6.002;2022-08-02T14:39:20;7.95;;;7.13;;
54517;SDS011;40423;53.176;6.002;2022-08-02T14:41:46;8.13;;;6.50;;
54517;SDS011;40423;53.176;6.002;2022-08-02T14:44:12;8.85;;;6.57;;
54517;SDS011;40423;53.176;6.002;2022-08-02T14:46:38;8.23;;;6.82;;
54517;SDS011;40423;53.176;6.002;2022-08-02T14:49:05;7.57;;;5.90;;
54517;SDS011;40423;53.176;6.002;2022-08-02T14:51:33;8.15;;;5.88;;
54517;SDS011;40423;53.176;6.002;2022-08-02T14:54:01;11.40;;;5.70;;
54517;SDS011;40423;53.176;6.002;2022-08-02T14:56:28;8.05;;;5.10;;
54517;SDS011;40423;53.176;6.002;2022-08-02T14:58:54;11.85;;;5.97;;
54517;SDS011;40423;53.176;6.002;2022-08-02T15:01:20;7.97;;;4.65;;
54517;SDS011;40423;53.176;6.002;2022-08-02T15:03:46;8.38;;;4.75;;
54517;SDS011;40423;53.176;6.002;2022-08-02T15:06:12;8.48;;;4.63;;
54517;SDS011;40423;53.176;6.002;2022-08-02T15:08:37;6.95;;;4.90;;
54517;SDS011;40423;53.176;6.002;2022-08-02T15:11:03;8.45;;;4.75;;
54517;SDS011;40423;53.176;6.002;2022-08-02T15:13:29;8.23;;;4.53;;
54517;SDS011;40423;53.176;6.002;2022-08-02T15:15:55;7.15;;;4.57;;
54517;SDS011;40423;53.176;6.002;2022-08-02T15:18:20;6.13;;;4.55;;
54517;SDS011;40423;53.176;6.002;2022-08-02T15:20:46;8.48;;;4.78;;
54517;SDS011;40423;53.176;6.002;2022-08-02T15:23:12;7.70;;;5.00;;